Nautilus — ISPC — position and weather

sailwx.info

Track history (hours):
 
Tides and Currents Weather Stations Pressure Air Temp Water Temp Dewpoint Dewpoint Depression Visibility Wind Speed Wind Dir Waves Ship Positions

Nautilus

Last reported at 2015-Jul-31 18:31 UTC. Time now 2015-Jul-31 19:25 UTC.
Position N 42°49' E 010°12'.

Length 25 m.

Type: Passenger vessel. MMSI: 247205700.

Date/timePositionNaut miles runAvg speedWind from/ knotsBaromVisibWave heightAir tempDewpointWater temp
2015-Jul-31 18:31N 42°49' E 010°12'0 0.1
2015-Jul-31 17:32N 42°48' E 010°12'3 1.4
2015-Jul-31 15:30N 42°49' E 010°08'1 0.7
2015-Jul-31 14:33N 42°49' E 010°09'3 3.1
2015-Jul-31 13:27N 42°46' E 010°06'5 5.2
2015-Jul-31 12:31N 42°48' E 010°12'0 0.0
2015-Jul-31 06:27N 42°49' E 010°12'0 0.0
2015-Jul-31 05:21N 42°49' E 010°12'0 0.0
2015-Jul-31 04:33N 42°49' E 010°12'0 0.0
2015-Jul-31 03:07N 42°49' E 010°12'0 0.0
2015-Jul-31 02:30N 42°49' E 010°12'0 0.0
2015-Jul-31 01:33N 42°49' E 010°12'0 0.0
2015-Jul-31 00:33N 42°49' E 010°12'0 0.0
2015-Jul-30 23:33N 42°49' E 010°12'0 0.0
2015-Jul-30 22:33N 42°49' E 010°12'0 0.0
2015-Jul-30 21:33N 42°49' E 010°12'0 0.0
2015-Jul-30 20:32N 42°49' E 010°12'0 0.0
2015-Jul-30 19:33N 42°49' E 010°12'0 0.0
2015-Jul-30 18:33N 42°49' E 010°12'0 0.0
2015-Jul-30 17:33N 42°49' E 010°12'0 0.0
2015-Jul-30 16:33N 42°49' E 010°12'0 0.0
2015-Jul-30 15:33N 42°49' E 010°12'2 2.2
2015-Jul-30 14:32N 42°49' E 010°09'2 1.2
2015-Jul-30 12:33N 42°48' E 010°12'1 0.7
2015-Jul-30 11:29N 42°49' E 010°13'0 0.0
2015-Jul-30 07:11N 42°49' E 010°12'1 0.8
2015-Jul-30 06:33N 42°49' E 010°12'0 0.0
2015-Jul-30 05:33N 42°49' E 010°12'0 0.0
2015-Jul-30 04:33N 42°49' E 010°12'0 0.0
2015-Jul-30 03:33N 42°49' E 010°12'0 0.0
2015-Jul-30 02:33N 42°49' E 010°12'0 0.0
2015-Jul-30 01:33N 42°49' E 010°12'0 0.0
2015-Jul-30 00:33N 42°49' E 010°12'0 0.0
2015-Jul-29 23:33N 42°49' E 010°12'0 0.0
2015-Jul-29 22:28N 42°49' E 010°12'0 0.0
2015-Jul-29 21:33N 42°49' E 010°12'0 0.0
2015-Jul-29 20:33N 42°49' E 010°12'0 0.0
2015-Jul-29 19:32N 42°49' E 010°12'0 0.0
2015-Jul-29 18:33N 42°49' E 010°12'0 0.1
2015-Jul-29 17:33N 42°48' E 010°12'2 1.0
2015-Jul-29 15:33N 42°49' E 010°09'2 2.1
2015-Jul-29 14:33N 42°48' E 010°12'0 0.0
2015-Jul-29 13:32N 42°48' E 010°12'0 0.0
2015-Jul-29 12:33N 42°48' E 010°12'0 0.0
2015-Jul-29 07:08N 42°49' E 010°12'0 0.3
2015-Jul-29 06:33N 42°49' E 010°12'0 0.0
2015-Jul-29 05:17N 42°49' E 010°12'0 0.0
2015-Jul-29 04:28N 42°49' E 010°12'0 0.0
2015-Jul-29 03:32N 42°49' E 010°12'0 0.0
2015-Jul-29 02:33N 42°49' E 010°12'0 0.0
2015-Jul-29 01:33N 42°49' E 010°12'0 0.0
2015-Jul-29 00:33N 42°49' E 010°12'0 0.0
2015-Jul-28 23:33N 42°49' E 010°12'0 0.0
2015-Jul-28 22:32N 42°49' E 010°12'0 0.0
2015-Jul-28 21:33N 42°49' E 010°12'0 0.0
2015-Jul-28 20:32N 42°49' E 010°12'0 0.0
2015-Jul-28 19:33N 42°49' E 010°12'0 0.0
2015-Jul-28 18:33N 42°49' E 010°12'0 0.0
2015-Jul-28 17:33N 42°49' E 010°12'0 0.0
2015-Jul-28 16:31N 42°49' E 010°12'0 0.0
2015-Jul-28 15:33N 42°49' E 010°12'0 0.0
2015-Jul-28 14:33N 42°49' E 010°12'0 0.0
2015-Jul-28 13:33N 42°49' E 010°12'0 0.0
2015-Jul-28 12:33N 42°49' E 010°12'0 0.0
2015-Jul-28 11:33N 42°49' E 010°12'0 0.0
2015-Jul-28 10:33N 42°49' E 010°12'0 0.0
2015-Jul-28 09:33N 42°49' E 010°12'0 0.0
2015-Jul-28 08:32N 42°49' E 010°12'0 0.0
2015-Jul-28 07:33N 42°49' E 010°12'0 0.0
2015-Jul-28 06:33N 42°49' E 010°12'0 0.0
2015-Jul-28 05:33N 42°49' E 010°12'0 0.0
2015-Jul-28 04:33N 42°49' E 010°12'0 0.0
2015-Jul-28 03:33N 42°49' E 010°12'0 0.0
2015-Jul-28 02:33N 42°49' E 010°12'0 0.0
2015-Jul-28 01:33N 42°49' E 010°12'0 0.0
2015-Jul-28 00:33N 42°49' E 010°12'0 0.0
2015-Jul-27 23:33N 42°49' E 010°12'0 0.0
2015-Jul-27 22:33N 42°49' E 010°12'0 0.0
2015-Jul-27 21:33N 42°49' E 010°12'0 0.0
2015-Jul-27 20:33N 42°49' E 010°12'0 0.0
2015-Jul-27 19:33N 42°49' E 010°12'0 0.0
2015-Jul-27 18:33N 42°49' E 010°12'0 0.0
2015-Jul-27 17:33N 42°49' E 010°12'0 0.0
2015-Jul-27 16:33N 42°49' E 010°12'0 0.0
2015-Jul-27 15:33N 42°49' E 010°12'0 0.0
2015-Jul-27 14:33N 42°49' E 010°12'0 0.2
2015-Jul-27 13:33N 42°48' E 010°12'0 0.0
2015-Jul-27 12:33N 42°48' E 010°12'0 0.0
2015-Jul-27 09:31N 42°48' E 010°12'0 0.0
2015-Jul-27 08:26N 42°48' E 010°12'1 0.0
2015-Jul-25 07:09N 42°49' E 010°12'0 0.8
2015-Jul-25 06:33N 42°49' E 010°12'0 0.0
2015-Jul-25 05:33N 42°49' E 010°12'0 0.0
2015-Jul-25 04:32N 42°49' E 010°12'0 0.0
2015-Jul-25 03:32N 42°49' E 010°12'0 0.0
2015-Jul-25 02:18N 42°49' E 010°12'0 0.0
2015-Jul-25 01:28N 42°49' E 010°12'0 0.0
2015-Jul-25 00:30N 42°49' E 010°12'0 0.0
2015-Jul-24 23:32N 42°49' E 010°12'0 0.0
2015-Jul-24 22:32N 42°49' E 010°12'0 0.0
2015-Jul-24 21:27N 42°49' E 010°12'0 0.0
2015-Jul-24 20:27N 42°49' E 010°12'0 0.0
2015-Jul-24 19:26N 42°49' E 010°12'0 0.0
2015-Jul-24 18:31N 42°49' E 010°12'0 0.0
2015-Jul-24 17:33N 42°48' E 010°12'5 5.1
2015-Jul-24 16:32N 42°46' E 010°06'3 3.0
2015-Jul-24 15:33N 42°48' E 010°08'4 0.5
2015-Jul-24 07:13N 42°49' E 010°13'1 1.6
2015-Jul-24 06:33N 42°49' E 010°12'0 0.0
2015-Jul-24 05:32N 42°49' E 010°12'0 0.0
2015-Jul-24 04:32N 42°49' E 010°12'0 0.0
2015-Jul-24 03:33N 42°49' E 010°12'0 0.0
2015-Jul-24 02:33N 42°49' E 010°12'0 0.0
2015-Jul-24 01:33N 42°49' E 010°12'0 0.0
2015-Jul-24 00:33N 42°49' E 010°12'0 0.0
2015-Jul-23 23:33N 42°49' E 010°12'0 0.0
2015-Jul-23 22:33N 42°49' E 010°12'0 0.0
2015-Jul-23 21:33N 42°49' E 010°12'0 0.0
2015-Jul-23 20:32N 42°49' E 010°12'0 0.0
2015-Jul-23 19:32N 42°49' E 010°12'0 0.0
2015-Jul-23 18:31N 42°49' E 010°12'0 0.0
2015-Jul-23 17:33N 42°49' E 010°12'3 1.5
2015-Jul-23 15:32N 42°48' E 010°08'3 1.3
2015-Jul-23 13:28N 42°46' E 010°06'5 5.4
2015-Jul-23 12:33N 42°48' E 010°12'0 0.0
2015-Jul-23 11:33N 42°48' E 010°12'1 0.2
2015-Jul-23 07:09N 42°49' E 010°13'1 1.6
2015-Jul-23 06:33N 42°49' E 010°12'0 0.0
2015-Jul-23 05:33N 42°49' E 010°12'0 0.0
2015-Jul-23 04:26N 42°49' E 010°12'0 0.0
2015-Jul-23 03:33N 42°49' E 010°12'0 0.0
2015-Jul-23 02:33N 42°49' E 010°12'0 0.0
2015-Jul-23 01:25N 42°49' E 010°12'0 0.0
2015-Jul-23 00:33N 42°49' E 010°12'0 0.0
2015-Jul-22 23:33N 42°49' E 010°12'0 0.0
2015-Jul-22 22:33N 42°49' E 010°12'0 0.0
2015-Jul-22 21:33N 42°49' E 010°12'0 0.0
2015-Jul-22 20:33N 42°49' E 010°12'0 0.0
2015-Jul-22 19:33N 42°49' E 010°12'0 0.0
2015-Jul-22 18:33N 42°49' E 010°12'0 0.1
2015-Jul-22 17:28N 42°48' E 010°12'3 1.4
2015-Jul-22 15:33N 42°49' E 010°08'0 0.1
2015-Jul-22 14:31N 42°49' E 010°08'3 2.5
2015-Jul-22 13:24N 42°46' E 010°06'5 5.2
2015-Jul-22 12:29N 42°48' E 010°12'0 0.5
2015-Jul-22 11:31N 42°49' E 010°12'5 5.4
2015-Jul-22 10:33N 42°49' E 010°19'0 0.0
2015-Jul-22 08:13N 42°49' E 010°19'6 5.1
2015-Jul-22 07:08N 42°48' E 010°12'0 0.1
2015-Jul-22 06:33N 42°49' E 010°12'0 0.0
2015-Jul-22 05:33N 42°49' E 010°12'0 0.0
2015-Jul-22 04:30N 42°49' E 010°12'0 0.0
2015-Jul-22 03:33N 42°49' E 010°12'0 0.0
2015-Jul-22 02:33N 42°49' E 010°12'0 0.0
2015-Jul-22 01:30N 42°49' E 010°12'0 0.0
2015-Jul-22 00:33N 42°49' E 010°12'0 0.0
2015-Jul-21 23:32N 42°49' E 010°12'0 0.0
2015-Jul-21 22:29N 42°49' E 010°12'0 0.0
2015-Jul-21 21:33N 42°49' E 010°12'0 0.0
2015-Jul-21 20:31N 42°49' E 010°12'0 0.0
2015-Jul-21 19:29N 42°49' E 010°12'  
Track history (hours):
 
Tides and Currents Weather Stations Pressure Air Temp Water Temp Dewpoint Dewpoint Depression Visibility Wind Speed Wind Dir Waves Ship Positions

Nautilus

Last reported at 2015-Jul-31 18:31 UTC. Time now 2015-Jul-31 19:25 UTC.
Position N 42°49' E 010°12'.

Length 25 m.

Type: Passenger vessel. MMSI: 247205700.

Date/timePositionNaut miles runAvg speedWind from/ knotsBaromVisibWave heightAir tempDewpointWater temp
2015-Jul-31 18:31N 42°49' E 010°12'0 0.1
2015-Jul-31 17:32N 42°48' E 010°12'3 1.4
2015-Jul-31 15:30N 42°49' E 010°08'1 0.7
2015-Jul-31 14:33N 42°49' E 010°09'3 3.1
2015-Jul-31 13:27N 42°46' E 010°06'5 5.2
2015-Jul-31 12:31N 42°48' E 010°12'0 0.0
2015-Jul-31 06:27N 42°49' E 010°12'0 0.0
2015-Jul-31 05:21N 42°49' E 010°12'0 0.0
2015-Jul-31 04:33N 42°49' E 010°12'0 0.0
2015-Jul-31 03:07N 42°49' E 010°12'0 0.0
2015-Jul-31 02:30N 42°49' E 010°12'0 0.0
2015-Jul-31 01:33N 42°49' E 010°12'0 0.0
2015-Jul-31 00:33N 42°49' E 010°12'0 0.0
2015-Jul-30 23:33N 42°49' E 010°12'0 0.0
2015-Jul-30 22:33N 42°49' E 010°12'0 0.0
2015-Jul-30 21:33N 42°49' E 010°12'0 0.0
2015-Jul-30 20:32N 42°49' E 010°12'0 0.0
2015-Jul-30 19:33N 42°49' E 010°12'0 0.0
2015-Jul-30 18:33N 42°49' E 010°12'0 0.0
2015-Jul-30 17:33N 42°49' E 010°12'0 0.0
2015-Jul-30 16:33N 42°49' E 010°12'0 0.0
2015-Jul-30 15:33N 42°49' E 010°12'2 2.2
2015-Jul-30 14:32N 42°49' E 010°09'2 1.2
2015-Jul-30 12:33N 42°48' E 010°12'1 0.7
2015-Jul-30 11:29N 42°49' E 010°13'0 0.0
2015-Jul-30 07:11N 42°49' E 010°12'1 0.8
2015-Jul-30 06:33N 42°49' E 010°12'0 0.0
2015-Jul-30 05:33N 42°49' E 010°12'0 0.0
2015-Jul-30 04:33N 42°49' E 010°12'0 0.0
2015-Jul-30 03:33N 42°49' E 010°12'0 0.0
2015-Jul-30 02:33N 42°49' E 010°12'0 0.0
2015-Jul-30 01:33N 42°49' E 010°12'0 0.0
2015-Jul-30 00:33N 42°49' E 010°12'0 0.0
2015-Jul-29 23:33N 42°49' E 010°12'0 0.0
2015-Jul-29 22:28N 42°49' E 010°12'0 0.0
2015-Jul-29 21:33N 42°49' E 010°12'0 0.0
2015-Jul-29 20:33N 42°49' E 010°12'0 0.0
2015-Jul-29 19:32N 42°49' E 010°12'0 0.0
2015-Jul-29 18:33N 42°49' E 010°12'0 0.1
2015-Jul-29 17:33N 42°48' E 010°12'2 1.0
2015-Jul-29 15:33N 42°49' E 010°09'2 2.1
2015-Jul-29 14:33N 42°48' E 010°12'0 0.0
2015-Jul-29 13:32N 42°48' E 010°12'0 0.0
2015-Jul-29 12:33N 42°48' E 010°12'0 0.0
2015-Jul-29 07:08N 42°49' E 010°12'0 0.3
2015-Jul-29 06:33N 42°49' E 010°12'0 0.0
2015-Jul-29 05:17N 42°49' E 010°12'0 0.0
2015-Jul-29 04:28N 42°49' E 010°12'0 0.0
2015-Jul-29 03:32N 42°49' E 010°12'0 0.0
2015-Jul-29 02:33N 42°49' E 010°12'0 0.0
2015-Jul-29 01:33N 42°49' E 010°12'0 0.0
2015-Jul-29 00:33N 42°49' E 010°12'0 0.0
2015-Jul-28 23:33N 42°49' E 010°12'0 0.0
2015-Jul-28 22:32N 42°49' E 010°12'0 0.0
2015-Jul-28 21:33N 42°49' E 010°12'0 0.0
2015-Jul-28 20:32N 42°49' E 010°12'0 0.0
2015-Jul-28 19:33N 42°49' E 010°12'0 0.0
2015-Jul-28 18:33N 42°49' E 010°12'0 0.0
2015-Jul-28 17:33N 42°49' E 010°12'0 0.0
2015-Jul-28 16:31N 42°49' E 010°12'0 0.0
2015-Jul-28 15:33N 42°49' E 010°12'0 0.0
2015-Jul-28 14:33N 42°49' E 010°12'0 0.0
2015-Jul-28 13:33N 42°49' E 010°12'0 0.0
2015-Jul-28 12:33N 42°49' E 010°12'0 0.0
2015-Jul-28 11:33N 42°49' E 010°12'0 0.0
2015-Jul-28 10:33N 42°49' E 010°12'0 0.0
2015-Jul-28 09:33N 42°49' E 010°12'0 0.0
2015-Jul-28 08:32N 42°49' E 010°12'0 0.0
2015-Jul-28 07:33N 42°49' E 010°12'0 0.0
2015-Jul-28 06:33N 42°49' E 010°12'0 0.0
2015-Jul-28 05:33N 42°49' E 010°12'0 0.0
2015-Jul-28 04:33N 42°49' E 010°12'0 0.0
2015-Jul-28 03:33N 42°49' E 010°12'0 0.0
2015-Jul-28 02:33N 42°49' E 010°12'0 0.0
2015-Jul-28 01:33N 42°49' E 010°12'0 0.0
2015-Jul-28 00:33N 42°49' E 010°12'0 0.0
2015-Jul-27 23:33N 42°49' E 010°12'0 0.0
2015-Jul-27 22:33N 42°49' E 010°12'0 0.0
2015-Jul-27 21:33N 42°49' E 010°12'0 0.0
2015-Jul-27 20:33N 42°49' E 010°12'0 0.0
2015-Jul-27 19:33N 42°49' E 010°12'0 0.0
2015-Jul-27 18:33N 42°49' E 010°12'0 0.0
2015-Jul-27 17:33N 42°49' E 010°12'0 0.0
2015-Jul-27 16:33N 42°49' E 010°12'0 0.0
2015-Jul-27 15:33N 42°49' E 010°12'0 0.0
2015-Jul-27 14:33N 42°49' E 010°12'0 0.2
2015-Jul-27 13:33N 42°48' E 010°12'0 0.0
2015-Jul-27 12:33N 42°48' E 010°12'0 0.0
2015-Jul-27 09:31N 42°48' E 010°12'0 0.0
2015-Jul-27 08:26N 42°48' E 010°12'1 0.0
2015-Jul-25 07:09N 42°49' E 010°12'0 0.8
2015-Jul-25 06:33N 42°49' E 010°12'0 0.0
2015-Jul-25 05:33N 42°49' E 010°12'0 0.0
2015-Jul-25 04:32N 42°49' E 010°12'0 0.0
2015-Jul-25 03:32N 42°49' E 010°12'0 0.0
2015-Jul-25 02:18N 42°49' E 010°12'0 0.0
2015-Jul-25 01:28N 42°49' E 010°12'0 0.0
2015-Jul-25 00:30N 42°49' E 010°12'0 0.0
2015-Jul-24 23:32N 42°49' E 010°12'0 0.0
2015-Jul-24 22:32N 42°49' E 010°12'0 0.0
2015-Jul-24 21:27N 42°49' E 010°12'0 0.0
2015-Jul-24 20:27N 42°49' E 010°12'0 0.0
2015-Jul-24 19:26N 42°49' E 010°12'0 0.0
2015-Jul-24 18:31N 42°49' E 010°12'0 0.0
2015-Jul-24 17:33N 42°48' E 010°12'5 5.1
2015-Jul-24 16:32N 42°46' E 010°06'3 3.0
2015-Jul-24 15:33N 42°48' E 010°08'4 0.5
2015-Jul-24 07:13N 42°49' E 010°13'1 1.6
2015-Jul-24 06:33N 42°49' E 010°12'0 0.0
2015-Jul-24 05:32N 42°49' E 010°12'0 0.0
2015-Jul-24 04:32N 42°49' E 010°12'0 0.0
2015-Jul-24 03:33N 42°49' E 010°12'0 0.0
2015-Jul-24 02:33N 42°49' E 010°12'0 0.0
2015-Jul-24 01:33N 42°49' E 010°12'0 0.0
2015-Jul-24 00:33N 42°49' E 010°12'0 0.0
2015-Jul-23 23:33N 42°49' E 010°12'0 0.0
2015-Jul-23 22:33N 42°49' E 010°12'0 0.0
2015-Jul-23 21:33N 42°49' E 010°12'0 0.0
2015-Jul-23 20:32N 42°49' E 010°12'0 0.0
2015-Jul-23 19:32N 42°49' E 010°12'0 0.0
2015-Jul-23 18:31N 42°49' E 010°12'0 0.0
2015-Jul-23 17:33N 42°49' E 010°12'3 1.5
2015-Jul-23 15:32N 42°48' E 010°08'3 1.3
2015-Jul-23 13:28N 42°46' E 010°06'5 5.4
2015-Jul-23 12:33N 42°48' E 010°12'0 0.0
2015-Jul-23 11:33N 42°48' E 010°12'1 0.2
2015-Jul-23 07:09N 42°49' E 010°13'1 1.6
2015-Jul-23 06:33N 42°49' E 010°12'0 0.0
2015-Jul-23 05:33N 42°49' E 010°12'0 0.0
2015-Jul-23 04:26N 42°49' E 010°12'0 0.0
2015-Jul-23 03:33N 42°49' E 010°12'0 0.0
2015-Jul-23 02:33N 42°49' E 010°12'0 0.0
2015-Jul-23 01:25N 42°49' E 010°12'0 0.0
2015-Jul-23 00:33N 42°49' E 010°12'0 0.0
2015-Jul-22 23:33N 42°49' E 010°12'0 0.0
2015-Jul-22 22:33N 42°49' E 010°12'0 0.0
2015-Jul-22 21:33N 42°49' E 010°12'0 0.0
2015-Jul-22 20:33N 42°49' E 010°12'0 0.0
2015-Jul-22 19:33N 42°49' E 010°12'0 0.0
2015-Jul-22 18:33N 42°49' E 010°12'0 0.1
2015-Jul-22 17:28N 42°48' E 010°12'3 1.4
2015-Jul-22 15:33N 42°49' E 010°08'0 0.1
2015-Jul-22 14:31N 42°49' E 010°08'3 2.5
2015-Jul-22 13:24N 42°46' E 010°06'5 5.2
2015-Jul-22 12:29N 42°48' E 010°12'0 0.5
2015-Jul-22 11:31N 42°49' E 010°12'5 5.4
2015-Jul-22 10:33N 42°49' E 010°19'0 0.0
2015-Jul-22 08:13N 42°49' E 010°19'6 5.1
2015-Jul-22 07:08N 42°48' E 010°12'0 0.1
2015-Jul-22 06:33N 42°49' E 010°12'0 0.0
2015-Jul-22 05:33N 42°49' E 010°12'0 0.0
2015-Jul-22 04:30N 42°49' E 010°12'0 0.0
2015-Jul-22 03:33N 42°49' E 010°12'0 0.0
2015-Jul-22 02:33N 42°49' E 010°12'0 0.0
2015-Jul-22 01:30N 42°49' E 010°12'0 0.0
2015-Jul-22 00:33N 42°49' E 010°12'0 0.0
2015-Jul-21 23:32N 42°49' E 010°12'0 0.0
2015-Jul-21 22:29N 42°49' E 010°12'0 0.0
2015-Jul-21 21:33N 42°49' E 010°12'0 0.0
2015-Jul-21 20:31N 42°49' E 010°12'0 0.0
2015-Jul-21 19:29N 42°49' E 010°12'  

Dump ship's entire track history